Kamrar, IA

4:49 PM CST on November 28, 2014 (GMT -0600)
Iowa Falls Municipal | Change Station
CLOSE
Current Station
Airport
Location: Iowa Falls,
Elevation: 1138 ft
Nearby Weather Stations

Elev 1138 ft 42.47 °N, 93.27 °W | Updated 14 minutes ago

Partly Cloudy
Partly Cloudy
29 °F
Feels Like 19 °F
N
12
Wind Variable Wind from ESE

Today
High -- | Low -- °F
--% Chance of Precip.
Yesterday
High -- | Low -- °F
Precip. -- in
7:21 AM 4:44 PM
Waxing Crescent, 45% visible
Pressure 29.79 in
Visibility 7.0 miles
Clouds Clear
Windchill 19 °F
Dew Point 25 °F
Humidity 84%
Rainfall 0.00 in
Snow Depth Not available.
UV 0 out of 12
Pollen .10 out of 12
Air Quality Not available.
Flu Activity Not available.
METAR KIFA 282235Z AUTO 12010KT 7SM CLR M02/M04 A2979 RMK AO2 T10171040

More Conditions Fewer Conditions

Pressure 29.79 in
Visibility 7.0 miles
Clouds Clear
Windchill 19 °F
Dew Point 25 °F
Humidity 84%
Rainfall 0.00 in
Snow Depth Not available.
UV 0 out of 12
Pollen .10 out of 12
Air Quality Not available.
Flu Activity Not available.
METAR KIFA 282235Z AUTO 12010KT 7SM CLR M02/M04 A2979 RMK AO2 T10171040

More Conditions Fewer Conditions

10-Day Weather Forecast

Almanac

Astronomy

Nov. 28, 2014 Rise Set
Actual Time
Civil Twilight
Nautical Twilight
Astronomical Twilight
Moon
Length of Visible Light
Length of Day
Tomorrow will be .
, % of the Moon is Illuminated

Today's Extremes

State Highs State Lows

Community

WunderPhotos

Upload Photos

1,774,323 photos uploaded!

WunderBlogs® & News

Nearby

Air Quality

  Air Quality AQ Index Pollutant
Not available.

Snow Depth

Station Depth Elevation

Earthquake Activity

City Distance Mag. Time & Date
Minimum magnitude displayed is 2.5.

Coastal Water Temperatures

Place Temperature

Nearby Weather Stations